createdAt,value
2019-02-09T00:00:47.208Z,41.52
2019-02-09T00:04:52.957Z,41.72
2019-02-09T00:08:59.122Z,41.94
2019-02-09T00:13:05.150Z,41.94
2019-02-09T00:17:10.838Z,42.16
2019-02-09T00:21:16.531Z,42.17
2019-02-09T00:25:24.614Z,42.85
2019-02-09T00:29:30.562Z,42.67
2019-02-09T00:33:37.289Z,42.44
2019-02-09T00:37:43.073Z,42.66
2019-02-09T00:41:48.768Z,42.74
2019-02-09T00:45:54.577Z,42.87
2019-02-09T00:50:00.316Z,43.20
2019-02-09T00:54:06.189Z,43.33
2019-02-09T00:58:11.892Z,43.19
2019-02-09T01:02:17.578Z,42.85
2019-02-09T01:06:23.269Z,42.85
2019-02-09T01:10:31.671Z,42.83
2019-02-09T01:14:37.399Z,42.37
2019-02-09T01:18:43.099Z,42.86
2019-02-09T01:22:49.024Z,43.02
2019-02-09T01:26:54.711Z,42.92
2019-02-09T01:31:00.475Z,42.91
2019-02-09T01:35:10.950Z,43.09
2019-02-09T01:39:16.623Z,43.17
2019-02-09T01:43:22.341Z,43.16
2019-02-09T01:47:28.046Z,43.32
2019-02-09T01:51:33.995Z,43.79
2019-02-09T01:55:39.735Z,43.80
2019-02-09T01:59:45.420Z,43.80
2019-02-09T02:03:51.214Z,43.51
2019-02-09T02:07:57.139Z,43.22
2019-02-09T02:12:02.816Z,42.96
2019-02-09T02:16:08.654Z,42.49
2019-02-09T02:20:26.845Z,42.28
2019-02-09T02:24:32.522Z,41.99
2019-02-09T02:28:38.245Z,41.90
2019-02-09T02:32:43.936Z,42.06
2019-02-09T02:36:52.115Z,41.62
2019-02-09T02:40:57.797Z,41.43
2019-02-09T02:45:03.721Z,41.47
2019-02-09T02:49:09.471Z,41.40
2019-02-09T02:53:16.859Z,41.00
2019-02-09T02:57:22.966Z,40.23
2019-02-09T03:01:30.360Z,39.88
2019-02-09T03:05:37.691Z,39.63
2019-02-09T03:09:43.337Z,39.48
2019-02-09T03:13:49.025Z,39.18
2019-02-09T03:17:55.232Z,38.30
2019-02-09T03:22:00.952Z,37.90
2019-02-09T03:26:06.743Z,37.70
2019-02-09T03:30:19.226Z,37.87
2019-02-09T03:34:24.886Z,37.84
2019-02-09T03:38:30.638Z,38.41
2019-02-09T03:42:36.333Z,39.78
2019-02-09T03:46:42.016Z,40.09
2019-02-09T03:50:47.830Z,40.52
2019-02-09T03:54:53.486Z,41.54
2019-02-09T03:58:59.298Z,42.98
2019-02-09T04:03:05.293Z,43.79
2019-02-09T04:07:10.983Z,44.43
2019-02-09T04:11:16.671Z,46.64
2019-02-09T04:15:27.398Z,48.19
2019-02-09T04:19:33.056Z,49.92
2019-02-09T04:23:38.913Z,51.86
2019-02-09T04:27:44.747Z,52.32
2019-02-09T04:31:50.412Z,52.01
2019-02-09T04:35:56.400Z,52.02
2019-02-09T04:40:02.096Z,51.78
2019-02-09T04:44:07.765Z,53.07
2019-02-09T04:48:13.455Z,54.00
2019-02-09T04:52:19.125Z,54.04
2019-02-09T04:56:24.847Z,54.35
2019-02-09T05:00:32.626Z,53.88
2019-02-09T05:04:38.367Z,53.90
2019-02-09T05:08:44.056Z,54.51
2019-02-09T05:12:49.855Z,54.33
2019-02-09T05:16:55.622Z,54.17
2019-02-09T05:21:01.301Z,54.70
2019-02-09T05:25:11.385Z,54.61
2019-02-09T05:29:17.097Z,55.02
2019-02-09T05:33:22.855Z,55.50
2019-02-09T05:37:28.530Z,55.49
2019-02-09T05:41:34.215Z,56.08
2019-02-09T05:45:40.042Z,56.11
2019-02-09T05:49:45.754Z,56.08
2019-02-09T05:53:52.685Z,56.22
2019-02-09T05:57:58.372Z,56.22
2019-02-09T06:02:04.181Z,56.53
2019-02-09T06:06:09.857Z,55.95
2019-02-09T06:10:19.564Z,55.95
2019-02-09T06:14:25.279Z,55.34
2019-02-09T06:18:30.944Z,55.23
2019-02-09T06:22:36.633Z,54.81
2019-02-09T06:26:42.327Z,55.10
2019-02-09T06:30:47.980Z,55.42
2019-02-09T06:34:53.670Z,56.02
2019-02-09T06:38:59.362Z,55.49
2019-02-09T06:43:05.310Z,55.41
2019-02-09T06:47:10.995Z,55.32
2019-02-09T06:51:16.662Z,55.38
2019-02-09T06:55:22.416Z,54.82
2019-02-09T06:59:28.104Z,54.98
2019-02-09T07:03:33.895Z,55.41
2019-02-09T07:07:39.591Z,55.16
2019-02-09T07:11:45.376Z,55.28
2019-02-09T07:15:51.068Z,54.74
2019-02-09T07:19:56.763Z,53.97
2019-02-09T07:24:02.445Z,53.47
2019-02-09T07:28:08.178Z,52.54
2019-02-09T07:37:02.261Z,52.36
2019-02-09T07:41:07.934Z,52.55
2019-02-09T07:45:20.690Z,52.21
2019-02-09T07:49:26.439Z,52.00
2019-02-09T07:53:32.205Z,52.30
2019-02-09T07:57:37.896Z,52.67
2019-02-09T08:01:43.583Z,52.48
2019-02-09T08:05:49.308Z,52.17
2019-02-09T08:09:55.082Z,51.75
2019-02-09T08:14:00.757Z,51.79
2019-02-09T08:18:09.555Z,51.96
2019-02-09T08:22:15.317Z,52.35
2019-02-09T08:26:21.077Z,53.19
2019-02-09T08:30:31.112Z,53.20
2019-02-09T08:34:36.870Z,52.39
2019-02-09T08:38:42.602Z,51.97
2019-02-09T08:42:48.398Z,52.24
2019-02-09T08:46:54.088Z,51.61
2019-02-09T08:51:04.466Z,51.33
2019-02-09T08:55:10.359Z,51.00
2019-02-09T08:59:16.058Z,50.21
2019-02-09T09:03:23.665Z,48.44
2019-02-09T09:07:29.391Z,43.86
2019-02-09T09:11:35.128Z,44.92
2019-02-09T09:15:51.939Z,45.85
2019-02-09T09:19:57.633Z,46.37
2019-02-09T09:24:03.338Z,44.42
2019-02-09T09:28:09.100Z,44.72
2019-02-09T09:32:14.795Z,44.87
2019-02-09T09:36:20.575Z,42.03
2019-02-09T09:40:36.294Z,40.99
2019-02-09T09:44:42.065Z,41.60
2019-02-09T09:48:47.765Z,41.94
2019-02-09T09:52:53.507Z,40.86
2019-02-09T09:56:59.201Z,40.25
2019-02-09T10:01:05.208Z,42.69
2019-02-09T10:05:11.431Z,44.37
2019-02-09T10:09:17.158Z,46.22
2019-02-09T10:13:22.902Z,48.72
2019-02-09T10:17:28.602Z,49.74
2019-02-09T10:21:34.334Z,48.13
2019-02-09T10:25:40.159Z,46.43
2019-02-09T10:29:45.878Z,45.16
2019-02-09T10:33:51.576Z,44.04
2019-02-09T10:37:57.955Z,45.19
2019-02-09T10:42:03.815Z,44.39
2019-02-09T10:46:09.514Z,42.56
2019-02-09T10:50:23.112Z,42.55
2019-02-09T10:54:28.803Z,43.42
2019-02-09T10:58:34.500Z,43.69
2019-02-09T11:02:40.199Z,44.22
2019-02-09T11:06:45.899Z,43.63
2019-02-09T11:10:51.825Z,44.30
2019-02-09T11:14:57.768Z,44.11
2019-02-09T11:19:03.702Z,44.17
2019-02-09T11:23:09.421Z,44.00
2019-02-09T11:27:15.110Z,43.11
2019-02-09T11:31:20.873Z,40.82
2019-02-09T11:35:26.739Z,40.58
2019-02-09T11:39:32.533Z,40.06
2019-02-09T11:43:38.290Z,40.79
2019-02-09T11:47:44.063Z,40.17
2019-02-09T11:51:50.328Z,40.99
2019-02-09T11:55:56.521Z,42.05
2019-02-09T12:00:02.215Z,42.35
2019-02-09T12:04:09.156Z,43.66
2019-02-09T12:08:14.839Z,42.22
2019-02-09T12:12:20.535Z,42.20
2019-02-09T12:16:26.335Z,40.71
2019-02-09T12:20:32.122Z,39.89
2019-02-09T12:24:37.825Z,39.59
2019-02-09T12:28:43.501Z,41.20
2019-02-09T12:32:49.347Z,40.18
2019-02-09T12:36:55.852Z,40.57
2019-02-09T12:41:03.092Z,39.67
2019-02-09T12:45:13.379Z,39.25
2019-02-09T12:49:19.070Z,37.78
2019-02-09T12:53:24.760Z,37.47
2019-02-09T12:57:30.455Z,36.26
2019-02-09T13:01:36.192Z,35.66
2019-02-09T13:05:42.012Z,36.47
2019-02-09T13:09:48.673Z,37.91
2019-02-09T13:13:54.458Z,39.49
2019-02-09T13:18:00.409Z,40.28
2019-02-09T13:22:06.641Z,40.73
2019-02-09T13:26:12.330Z,41.72
2019-02-09T13:30:27.943Z,42.52
2019-02-09T13:34:33.655Z,42.47
2019-02-09T13:38:39.373Z,42.05
2019-02-09T13:42:45.153Z,41.91
2019-02-09T13:46:50.830Z,41.70
2019-02-09T13:50:56.602Z,41.81
2019-02-09T13:55:02.302Z,42.03
2019-02-09T13:59:08.200Z,41.61
2019-02-09T14:03:13.921Z,42.05
2019-02-09T14:07:19.597Z,43.26
2019-02-09T14:11:25.278Z,43.20
2019-02-09T14:15:40.122Z,43.29
2019-02-09T14:19:45.883Z,43.52
2019-02-09T14:23:51.682Z,43.26
2019-02-09T14:27:59.428Z,44.16
2019-02-09T14:32:05.307Z,44.35
2019-02-09T14:36:11.083Z,44.98
2019-02-09T14:40:26.264Z,44.82
2019-02-09T14:44:31.961Z,44.33
2019-02-09T14:48:38.680Z,43.93
2019-02-09T14:52:44.521Z,43.99
2019-02-09T14:56:51.465Z,43.67
2019-02-09T15:00:57.277Z,43.89
2019-02-09T15:05:03.219Z,43.93
2019-02-09T15:09:09.661Z,43.89
2019-02-09T15:13:16.059Z,44.21
2019-02-09T15:17:21.753Z,44.08
2019-02-09T15:21:27.449Z,43.84
2019-02-09T15:25:33.322Z,43.86
2019-02-09T15:29:39.021Z,43.94
2019-02-09T15:33:45.262Z,44.30
2019-02-09T15:37:51.067Z,44.28
2019-02-09T15:41:56.800Z,44.39
2019-02-09T15:46:02.686Z,44.62
2019-02-09T15:50:15.228Z,44.64
2019-02-09T15:54:20.952Z,44.83
2019-02-09T15:58:26.670Z,45.16
2019-02-09T16:02:32.353Z,44.95
2019-02-09T16:06:38.037Z,45.06
2019-02-09T16:10:43.857Z,44.81
2019-02-09T16:14:49.554Z,44.73
2019-02-09T16:18:55.282Z,44.65
2019-02-09T16:23:01.046Z,44.86
2019-02-09T16:27:06.811Z,44.71
2019-02-09T16:31:12.513Z,45.14
2019-02-09T16:35:21.585Z,45.05
2019-02-09T16:39:27.354Z,45.21
2019-02-09T16:43:33.072Z,44.82
2019-02-09T16:47:38.944Z,44.51
2019-02-09T16:51:44.659Z,44.49
2019-02-09T16:55:50.344Z,44.28
2019-02-09T16:59:56.050Z,44.43
2019-02-09T17:04:01.748Z,44.09
2019-02-09T17:08:07.764Z,43.84
2019-02-09T17:12:13.511Z,43.82
2019-02-09T17:16:19.251Z,43.47
2019-02-09T17:20:25.544Z,43.46
2019-02-09T17:24:31.244Z,43.74
2019-02-09T17:28:36.938Z,43.80
2019-02-09T17:32:42.933Z,43.40
2019-02-09T17:36:48.646Z,43.15
2019-02-09T17:40:54.337Z,43.25
2019-02-09T17:45:00.005Z,43.35
2019-02-09T17:49:06.128Z,43.46
2019-02-09T17:53:12.235Z,42.84
2019-02-09T17:57:17.931Z,42.64
2019-02-09T18:01:23.614Z,42.12
2019-02-09T18:05:29.341Z,42.28
2019-02-09T18:09:36.000Z,42.55
2019-02-09T18:13:41.697Z,42.58
2019-02-09T18:17:47.794Z,42.13
2019-02-09T18:21:53.563Z,42.46
2019-02-09T18:25:59.994Z,42.66
2019-02-09T18:35:20.012Z,42.40
2019-02-09T18:39:25.774Z,42.43
2019-02-09T18:43:32.545Z,42.23
2019-02-09T18:47:38.299Z,42.13
2019-02-09T18:51:45.227Z,42.08
2019-02-09T18:55:51.016Z,42.44
2019-02-09T18:59:56.693Z,42.48
2019-02-09T19:04:02.374Z,42.79
2019-02-09T19:08:09.300Z,42.77
2019-02-09T19:12:14.993Z,42.96
2019-02-09T19:16:21.884Z,43.11
2019-02-09T19:20:34.167Z,43.75
2019-02-09T19:24:39.828Z,44.47
2019-02-09T19:28:45.526Z,45.18
2019-02-09T19:32:51.932Z,46.08
2019-02-09T19:36:57.812Z,45.14
2019-02-09T19:41:03.518Z,44.66
2019-02-09T19:45:21.397Z,44.13
2019-02-09T19:49:28.156Z,43.67
2019-02-09T19:53:33.860Z,43.29
2019-02-09T19:57:39.681Z,43.23
2019-02-09T20:01:45.391Z,43.04
2019-02-09T20:05:51.066Z,43.27
2019-02-09T20:10:17.658Z,43.37
2019-02-09T20:14:23.345Z,43.26
2019-02-09T20:18:29.042Z,43.27
2019-02-09T20:22:37.664Z,43.37
2019-02-09T20:26:43.339Z,43.99
2019-02-09T20:30:49.094Z,44.35
2019-02-09T20:34:54.945Z,44.39
2019-02-09T20:39:04.650Z,44.48
2019-02-09T20:43:13.373Z,44.84
2019-02-09T20:47:19.110Z,44.87
2019-02-09T20:51:24.811Z,45.15
2019-02-09T20:55:30.520Z,44.90
2019-02-09T20:59:36.230Z,44.83
2019-02-09T21:04:01.284Z,45.24
2019-02-09T21:08:19.290Z,45.39
2019-02-09T21:12:25.013Z,45.28
2019-02-09T21:16:30.728Z,45.07
2019-02-09T21:20:36.614Z,45.02
2019-02-09T21:24:42.282Z,45.50
2019-02-09T21:28:47.998Z,45.74
2019-02-09T21:32:54.101Z,45.99
2019-02-09T21:36:59.814Z,46.21
2019-02-09T21:41:17.258Z,45.91
2019-02-09T21:45:25.108Z,45.78
2019-02-09T21:49:32.405Z,45.59
2019-02-09T21:53:39.324Z,45.88
2019-02-09T21:57:45.106Z,45.99
2019-02-09T22:01:50.802Z,46.24
2019-02-09T22:05:56.581Z,46.26
2019-02-09T22:10:02.254Z,46.23
2019-02-09T22:14:08.028Z,46.37
2019-02-09T22:18:13.693Z,46.53
2019-02-09T22:22:19.396Z,47.10
2019-02-09T22:26:25.119Z,46.76
2019-02-09T22:30:32.159Z,46.58
2019-02-09T22:34:37.830Z,46.67
2019-02-09T22:39:03.258Z,46.49
2019-02-09T22:43:10.949Z,46.62
2019-02-09T22:47:16.653Z,46.49
2019-02-09T22:51:22.427Z,46.59
2019-02-09T22:55:31.396Z,46.40
2019-02-09T22:59:37.114Z,46.48
2019-02-09T23:03:59.062Z,46.57
2019-02-09T23:08:04.761Z,47.19
2019-02-09T23:12:10.483Z,47.05
2019-02-09T23:16:16.161Z,46.86
2019-02-09T23:20:21.866Z,46.73
2019-02-09T23:24:27.646Z,46.86
2019-02-09T23:28:33.329Z,46.71
2019-02-09T23:44:18.084Z,47.24
2019-02-09T23:48:23.744Z,47.48
2019-02-09T23:52:29.489Z,47.66
2019-02-09T23:57:17.024Z,47.76
